Time;durP1;ratioP1;P1;durP2;ratioP2;P2;SDS_P1;SDS_P2;PMS_P1;PMS_P2;Temp;Humidity;BMP_temperature;BMP_pressure;BME280_temperature;BME280_humidity;BME280_pressure;Samples;Min_cycle;Max_cycle;Signal;HPM_P1;HPM_P2
2022/07/05 00:01:05;;;;;;;5.85;3.60;;;18.30;99.90;;;;;;5051912;28;20420;-75
2022/07/05 00:03:31;;;;;;;5.57;3.80;;;18.20;99.90;;;;;;5047734;28;20021;-75
2022/07/05 00:05:57;;;;;;;5.88;3.60;;;18.20;99.90;;;;;;5040673;28;20067;-74
2022/07/05 00:08:22;;;;;;;7.85;3.53;;;18.20;99.90;;;;;;5051799;28;20064;-74
2022/07/05 00:10:48;;;;;;;7.22;3.83;;;18.20;99.90;;;;;;5052137;28;20021;-74
2022/07/05 00:13:14;;;;;;;7.03;4.30;;;18.20;99.90;;;;;;5051928;28;20025;-74
2022/07/05 00:15:40;;;;;;;6.35;4.00;;;18.10;99.90;;;;;;5048708;28;20481;-74
2022/07/05 00:18:06;;;;;;;8.20;4.10;;;18.10;99.90;;;;;;5051935;28;20036;-73
2022/07/05 00:20:32;;;;;;;6.35;4.25;;;18.10;99.90;;;;;;5038659;28;20032;-74
2022/07/05 00:22:57;;;;;;;9.38;4.93;;;18.10;99.90;;;;;;5046089;28;20583;-74
2022/07/05 00:25:23;;;;;;;7.75;4.55;;;18.00;99.90;;;;;;5044055;28;20032;-75
2022/07/05 00:27:48;;;;;;;6.30;4.60;;;18.00;99.90;;;;;;5044329;28;20551;-73
2022/07/05 00:30:14;;;;;;;7.20;4.90;;;18.00;99.90;;;;;;5051408;28;20108;-74
2022/07/05 00:32:40;;;;;;;7.82;4.28;;;18.00;99.90;;;;;;5042456;28;20481;-74
2022/07/05 00:35:06;;;;;;;5.32;3.83;;;18.00;99.90;;;;;;5041845;28;20394;-74
2022/07/05 00:37:32;;;;;;;6.38;4.45;;;18.00;99.90;;;;;;5040395;28;20450;-74
2022/07/05 00:39:58;;;;;;;5.38;4.10;;;18.00;99.90;;;;;;5043776;28;20104;-74
2022/07/05 00:42:23;;;;;;;5.55;4.15;;;17.90;99.90;;;;;;5045547;28;20029;-74
2022/07/05 00:44:49;;;;;;;6.50;4.00;;;17.90;99.90;;;;;;5048847;28;20028;-74
2022/07/05 00:47:15;;;;;;;5.93;4.00;;;17.90;99.90;;;;;;5037168;28;20079;-73
2022/07/05 00:49:42;;;;;;;7.72;3.83;;;17.90;99.90;;;;;;5038472;28;20052;-74
2022/07/05 00:52:08;;;;;;;10.18;3.97;;;17.80;99.90;;;;;;5046602;28;20033;-74
2022/07/05 00:54:37;;;;;;;7.60;4.25;;;17.80;99.90;;;;;;5047563;28;20044;-75
2022/07/05 00:57:03;;;;;;;6.97;3.83;;;17.80;99.90;;;;;;5051456;28;20031;-74
2022/07/05 00:59:30;;;;;;;7.30;4.15;;;17.70;99.90;;;;;;5049412;28;20516;-74
2022/07/05 01:01:56;;;;;;;9.98;4.00;;;17.70;99.90;;;;;;5046461;28;20028;-75
2022/07/05 01:04:21;;;;;;;8.15;4.00;;;17.60;99.90;;;;;;5039589;28;20079;-74
2022/07/05 01:06:49;;;;;;;6.65;4.20;;;17.60;99.90;;;;;;5035547;28;20052;-74
2022/07/05 01:09:16;;;;;;;5.68;3.78;;;17.60;99.90;;;;;;5050852;28;20738;-74
2022/07/05 01:11:44;;;;;;;5.00;3.63;;;17.50;99.90;;;;;;5050488;28;20376;-75
2022/07/05 01:14:13;;;;;;;7.82;4.25;;;17.50;99.90;;;;;;5037586;28;20155;-75
2022/07/05 01:16:39;;;;;;;7.32;4.43;;;17.40;99.90;;;;;;5050706;28;20112;-75
2022/07/05 01:19:11;;;;;;;7.95;4.70;;;17.40;99.90;;;;;;5040776;28;20151;-74
2022/07/05 01:21:39;;;;;;;6.53;4.68;;;17.30;99.90;;;;;;5039695;28;20049;-74
2022/07/05 01:24:13;;;;;;;6.20;4.75;;;17.30;99.90;;;;;;5033750;28;20025;-74
2022/07/05 01:26:40;;;;;;;6.45;4.80;;;17.30;99.90;;;;;;5050043;28;20151;-74
2022/07/05 01:29:07;;;;;;;9.40;5.88;;;17.20;99.90;;;;;;5044795;28;20040;-74
2022/07/05 01:31:33;;;;;;;9.40;5.80;;;17.20;99.90;;;;;;5049129;28;20385;-74
2022/07/05 01:33:59;;;;;;;8.13;5.68;;;17.10;99.90;;;;;;5042413;28;20034;-75
2022/07/05 01:36:24;;;;;;;9.52;5.72;;;17.10;99.90;;;;;;5038624;28;20021;-74
2022/07/05 01:38:50;;;;;;;7.47;5.10;;;17.10;99.90;;;;;;5039955;28;20108;-74
2022/07/05 01:41:16;;;;;;;9.40;5.93;;;17.00;99.90;;;;;;5044380;28;20363;-74
2022/07/05 01:43:42;;;;;;;7.40;6.03;;;17.00;99.90;;;;;;5043840;28;20439;-74
2022/07/05 01:46:09;;;;;;;7.65;6.32;;;17.00;99.90;;;;;;5036113;28;20061;-73
2022/07/05 01:48:38;;;;;;;9.40;6.95;;;16.90;99.90;;;;;;5047774;28;20029;-73
2022/07/05 01:51:23;;;;;;;12.60;6.65;;;16.90;99.90;;;;;;5040975;28;20422;-74
2022/07/05 01:53:52;;;;;;;8.83;6.73;;;16.90;99.90;;;;;;5042237;28;20025;-74
2022/07/05 01:56:18;;;;;;;10.60;7.00;;;16.90;99.90;;;;;;5049812;28;20025;-74
2022/07/05 01:58:44;;;;;;;9.70;6.80;;;16.80;99.90;;;;;;5041316;28;20040;-74
2022/07/05 02:01:10;;;;;;;10.48;7.55;;;16.80;99.90;;;;;;5044950;28;20035;-75
2022/07/05 02:03:36;;;;;;;10.95;7.30;;;16.80;99.90;;;;;;5041826;28;20374;-74
2022/07/05 02:06:02;;;;;;;11.88;7.95;;;16.70;99.90;;;;;;5047868;28;20055;-74
2022/07/05 02:08:31;;;;;;;11.20;7.72;;;16.70;99.90;;;;;;5049977;28;20501;-74
2022/07/05 02:10:57;;;;;;;10.90;8.10;;;16.70;99.90;;;;;;5047657;28;20063;-73
2022/07/05 02:13:23;;;;;;;12.50;8.57;;;16.60;99.90;;;;;;5049133;28;20025;-74
2022/07/05 02:15:49;;;;;;;15.82;9.65;;;16.60;99.90;;;;;;5045736;28;20025;-75
2022/07/05 02:18:14;;;;;;;13.48;10.55;;;16.50;99.90;;;;;;5038358;28;20527;-74
2022/07/05 02:20:41;;;;;;;16.25;10.63;;;16.50;99.90;;;;;;5049187;28;20029;-73
2022/07/05 02:23:07;;;;;;;16.88;11.27;;;16.50;99.90;;;;;;5046356;28;20045;-74
2022/07/05 02:25:33;;;;;;;14.90;10.82;;;16.50;99.90;;;;;;5041605;28;20032;-74
2022/07/05 02:27:59;;;;;;;17.65;11.27;;;16.40;99.90;;;;;;5047879;28;20033;-74
2022/07/05 02:30:25;;;;;;;15.93;11.07;;;16.40;99.90;;;;;;5048372;28;20477;-74
2022/07/05 02:32:50;;;;;;;13.93;10.77;;;16.40;99.90;;;;;;5037204;28;20037;-74
2022/07/05 02:35:16;;;;;;;15.23;10.48;;;16.40;99.90;;;;;;5044816;28;20029;-74
2022/07/05 02:37:43;;;;;;;14.15;10.25;;;16.30;99.90;;;;;;5035685;28;20036;-75
2022/07/05 02:40:10;;;;;;;14.35;9.55;;;16.40;99.90;;;;;;5031003;28;20052;-75
2022/07/05 02:42:37;;;;;;;15.25;10.32;;;16.30;99.90;;;;;;5042461;28;20013;-74
2022/07/05 02:45:03;;;;;;;13.43;9.45;;;16.30;99.90;;;;;;5045714;28;20041;-74
2022/07/05 02:47:33;;;;;;;14.68;10.60;;;16.20;99.90;;;;;;5047259;28;20029;-75
2022/07/05 02:50:02;;;;;;;14.52;10.30;;;16.20;99.90;;;;;;5049685;28;20021;-75
2022/07/05 02:52:27;;;;;;;13.93;9.95;;;16.30;99.90;;;;;;5038574;28;20027;-74
2022/07/05 02:54:53;;;;;;;12.73;9.40;;;16.20;99.90;;;;;;5040115;28;20283;-75
2022/07/05 02:57:19;;;;;;;13.60;9.48;;;16.20;99.90;;;;;;5049463;28;20029;-74
2022/07/05 02:59:44;;;;;;;14.57;8.95;;;16.20;99.90;;;;;;5036395;28;20024;-74
2022/07/05 03:02:10;;;;;;;14.18;9.73;;;16.20;99.90;;;;;;5047478;28;20427;-74
2022/07/05 03:04:35;;;;;;;14.15;10.38;;;16.30;99.90;;;;;;5052887;28;20049;-74
2022/07/05 03:07:01;;;;;;;16.40;11.23;;;16.30;99.90;;;;;;5045888;28;20025;-75
2022/07/05 03:09:27;;;;;;;15.50;10.65;;;16.30;99.90;;;;;;5042207;28;20037;-75
2022/07/05 03:11:52;;;;;;;18.75;11.43;;;16.30;99.90;;;;;;5047666;28;20470;-74
2022/07/05 03:14:18;;;;;;;15.70;10.85;;;16.30;99.90;;;;;;5049719;28;20044;-74
2022/07/05 03:16:44;;;;;;;16.10;10.38;;;16.30;99.90;;;;;;5052852;28;20443;-74
2022/07/05 03:19:10;;;;;;;16.70;11.27;;;16.40;99.90;;;;;;5053324;28;20025;-74
2022/07/05 03:21:36;;;;;;;14.95;11.40;;;16.40;99.90;;;;;;5050059;28;20057;-74
2022/07/05 03:24:02;;;;;;;17.00;12.07;;;16.40;99.90;;;;;;5051632;28;20029;-74
2022/07/05 03:26:27;;;;;;;17.10;12.13;;;16.40;99.90;;;;;;5050836;28;20033;-74
2022/07/05 03:28:53;;;;;;;16.13;11.65;;;16.40;99.90;;;;;;5052658;28;20396;-75
2022/07/05 03:31:19;;;;;;;17.98;11.82;;;16.40;99.90;;;;;;5046881;28;20107;-74
2022/07/05 03:33:44;;;;;;;18.23;11.95;;;16.40;99.90;;;;;;5051378;28;20175;-74
2022/07/05 03:36:10;;;;;;;17.35;12.30;;;16.40;99.90;;;;;;5052646;28;20028;-74
2022/07/05 03:38:36;;;;;;;14.85;11.93;;;16.40;99.90;;;;;;5052409;28;20534;-73
2022/07/05 03:41:02;;;;;;;18.80;12.77;;;16.50;99.90;;;;;;5052506;28;20019;-73
2022/07/05 03:43:28;;;;;;;17.90;12.05;;;16.50;99.90;;;;;;5039296;28;20021;-74
2022/07/05 03:45:54;;;;;;;19.58;13.02;;;16.50;99.90;;;;;;5044948;28;20040;-74
2022/07/05 03:48:20;;;;;;;20.00;12.40;;;16.50;99.90;;;;;;5042345;28;20029;-74
2022/07/05 03:50:46;;;;;;;20.05;12.10;;;16.50;99.90;;;;;;5050928;28;20444;-74
2022/07/05 03:53:11;;;;;;;17.40;12.32;;;16.50;99.90;;;;;;5042777;28;20024;-74
2022/07/05 03:55:37;;;;;;;17.50;12.43;;;16.50;99.90;;;;;;5041806;28;20493;-74
2022/07/05 03:58:03;;;;;;;17.17;12.57;;;16.50;99.90;;;;;;5052270;28;20106;-74
2022/07/05 04:00:28;;;;;;;21.35;13.23;;;16.50;99.90;;;;;;5045704;28;20057;-75
2022/07/05 04:02:54;;;;;;;19.67;11.93;;;16.50;99.90;;;;;;5045932;28;20103;-74
2022/07/05 04:05:20;;;;;;;18.90;12.07;;;16.50;99.90;;;;;;5041524;28;20051;-74
2022/07/05 04:07:53;;;;;;;16.17;12.20;;;16.50;99.90;;;;;;5034521;28;20417;-74
2022/07/05 04:10:20;;;;;;;19.90;12.52;;;16.40;99.90;;;;;;5031729;28;20126;-75
2022/07/05 04:12:46;;;;;;;16.60;12.05;;;16.40;99.90;;;;;;5032393;28;20033;-74
2022/07/05 04:15:12;;;;;;;18.33;12.75;;;16.40;99.90;;;;;;5036244;28;20049;-74
2022/07/05 04:17:51;;;;;;;17.20;12.05;;;16.40;99.90;;;;;;5031720;28;20033;-74
2022/07/05 04:20:17;;;;;;;18.10;12.15;;;16.40;99.90;;;;;;5032592;28;20025;-76
2022/07/05 04:22:43;;;;;;;16.73;12.18;;;16.40;99.90;;;;;;5037133;28;20505;-76
2022/07/05 04:25:18;;;;;;;20.00;13.98;;;16.40;99.90;;;;;;5032049;28;20033;-75
2022/07/05 04:27:44;;;;;;;19.05;13.27;;;16.40;99.90;;;;;;5038075;28;20032;-81
2022/07/05 04:30:10;;;;;;;19.27;13.43;;;16.40;99.90;;;;;;5038823;28;20029;-81
2022/07/05 04:32:36;;;;;;;19.63;13.27;;;16.40;99.90;;;;;;5031901;28;20029;-81
2022/07/05 04:35:02;;;;;;;18.40;13.52;;;16.40;99.90;;;;;;5031896;28;20017;-81
2022/07/05 04:37:27;;;;;;;18.15;13.60;;;16.40;99.90;;;;;;5031951;28;20064;-81
2022/07/05 04:39:53;;;;;;;20.83;14.82;;;16.40;99.90;;;;;;5033253;28;20091;-81
2022/07/05 04:42:19;;;;;;;26.67;17.90;;;16.40;99.90;;;;;;5033167;28;20233;-80
2022/07/05 04:44:44;;;;;;;25.65;17.83;;;16.40;99.90;;;;;;5035654;28;20026;-80
2022/07/05 04:47:10;;;;;;;27.15;18.15;;;16.40;99.90;;;;;;5034549;28;20108;-81
2022/07/05 04:49:35;;;;;;;28.65;17.50;;;16.40;99.90;;;;;;5031525;28;20489;-80
2022/07/05 04:52:01;;;;;;;29.13;18.98;;;16.40;99.90;;;;;;5029944;28;20022;-80
2022/07/05 04:54:26;;;;;;;30.75;18.70;;;16.40;99.90;;;;;;5031107;28;20366;-81
2022/07/05 04:56:52;;;;;;;27.67;19.58;;;16.40;99.90;;;;;;5031362;28;20021;-81
2022/07/05 04:59:17;;;;;;;30.10;18.40;;;16.50;99.90;;;;;;5039679;28;20016;-80
2022/07/05 05:01:43;;;;;;;32.13;19.27;;;16.50;99.90;;;;;;5039437;28;20272;-79
2022/07/05 05:04:08;;;;;;;30.98;19.90;;;16.50;99.90;;;;;;5043609;28;20033;-80
2022/07/05 05:06:34;;;;;;;25.92;18.63;;;16.50;99.90;;;;;;5035750;28;20095;-80
2022/07/05 05:09:00;;;;;;;32.17;18.58;;;16.60;99.90;;;;;;5035311;28;20437;-81
2022/07/05 05:11:25;;;;;;;25.73;17.25;;;16.70;99.90;;;;;;5038889;28;20435;-78
2022/07/05 05:13:51;;;;;;;24.40;16.92;;;16.70;99.90;;;;;;5031403;28;20028;-80
2022/07/05 05:16:16;;;;;;;24.85;17.30;;;16.80;99.90;;;;;;5031136;28;20025;-80
2022/07/05 05:18:42;;;;;;;23.33;16.38;;;16.80;99.90;;;;;;5031202;28;20033;-80
2022/07/05 05:21:07;;;;;;;22.50;16.30;;;16.90;99.90;;;;;;5031189;28;20104;-80
2022/07/05 05:23:33;;;;;;;21.67;15.02;;;16.90;99.90;;;;;;5036267;28;20414;-80
2022/07/05 05:25:58;;;;;;;22.13;15.18;;;17.00;99.90;;;;;;5033211;28;20064;-75
2022/07/05 05:28:24;;;;;;;24.98;14.85;;;17.10;99.90;;;;;;5031026;28;20033;-76
2022/07/05 05:30:50;;;;;;;18.77;13.30;;;17.20;99.90;;;;;;5032935;28;20029;-75
2022/07/05 05:33:16;;;;;;;17.77;13.23;;;17.20;99.90;;;;;;5031897;28;20457;-75
2022/07/05 05:35:42;;;;;;;19.98;12.75;;;17.30;99.90;;;;;;5034431;28;20024;-76
2022/07/05 05:38:08;;;;;;;19.20;12.18;;;17.30;99.90;;;;;;5034519;28;20472;-75
2022/07/05 05:40:33;;;;;;;18.23;11.02;;;17.40;99.90;;;;;;5044999;28;20092;-76
2022/07/05 05:42:59;;;;;;;16.85;10.68;;;17.40;99.90;;;;;;5040852;28;20012;-75
2022/07/05 05:45:26;;;;;;;17.35;10.85;;;17.50;99.90;;;;;;5049728;28;20057;-80
2022/07/05 05:47:53;;;;;;;17.42;10.55;;;17.60;99.90;;;;;;5034094;28;20028;-80
2022/07/05 05:50:25;;;;;;;15.23;9.52;;;17.60;99.90;;;;;;5031754;28;20107;-80
2022/07/05 05:52:51;;;;;;;13.95;10.02;;;17.70;99.90;;;;;;5029550;28;20502;-81
2022/07/05 05:55:17;;;;;;;17.05;9.00;;;17.70;99.90;;;;;;5028916;28;20358;-80
2022/07/05 05:57:42;;;;;;;15.38;8.35;;;17.80;99.90;;;;;;5041609;28;20021;-80
2022/07/05 06:00:10;;;;;;;14.05;7.72;;;17.80;99.90;;;;;;5038034;28;20026;-80
2022/07/05 06:02:35;;;;;;;12.77;7.55;;;17.90;99.90;;;;;;5031756;28;20045;-80
2022/07/05 06:05:01;;;;;;;10.93;6.35;;;17.90;99.90;;;;;;5030724;28;20072;-80
2022/07/05 06:07:26;;;;;;;10.05;5.28;;;18.00;99.90;;;;;;5030271;28;20585;-80
2022/07/05 06:09:52;;;;;;;6.78;4.95;;;18.00;99.90;;;;;;5030182;28;20025;-76
2022/07/05 06:12:18;;;;;;;11.02;4.60;;;18.10;99.90;;;;;;5030450;28;20025;-76
2022/07/05 06:14:43;;;;;;;5.72;3.63;;;18.10;99.90;;;;;;5033415;28;20446;-75
2022/07/05 06:17:09;;;;;;;5.05;3.53;;;18.20;99.90;;;;;;5037757;28;20597;-76
2022/07/05 06:19:34;;;;;;;7.03;3.30;;;18.20;99.90;;;;;;5029915;28;20021;-76
2022/07/05 06:22:00;;;;;;;6.50;3.25;;;18.30;99.90;;;;;;5032959;28;20051;-75
2022/07/05 06:24:25;;;;;;;8.98;3.00;;;18.30;99.90;;;;;;5033644;28;20030;-76
2022/07/05 06:26:51;;;;;;;8.23;3.38;;;18.40;99.90;;;;;;5030058;28;20021;-76
2022/07/05 06:29:16;;;;;;;8.50;3.13;;;18.50;99.90;;;;;;5030266;28;20104;-76
2022/07/05 06:31:42;;;;;;;7.57;3.30;;;18.50;99.90;;;;;;5030029;28;20531;-76
2022/07/05 06:34:08;;;;;;;7.85;2.92;;;18.60;99.90;;;;;;5041066;28;20051;-76
2022/07/05 06:36:33;;;;;;;5.03;2.78;;;18.60;99.90;;;;;;5034752;28;20033;-77
2022/07/05 06:38:59;;;;;;;7.25;2.33;;;18.70;99.90;;;;;;5053012;28;20363;-78
2022/07/05 06:41:24;;;;;;;6.40;2.13;;;18.70;99.90;;;;;;5053871;28;20469;-76
2022/07/05 06:43:50;;;;;;;5.72;2.10;;;18.80;99.90;;;;;;5053747;28;20473;-76
2022/07/05 06:46:15;;;;;;;4.60;2.05;;;18.90;99.90;;;;;;5053537;28;20037;-76
2022/07/05 06:48:41;;;;;;;4.15;2.00;;;19.00;99.90;;;;;;5053914;28;20025;-75
2022/07/05 06:51:07;;;;;;;5.93;1.67;;;19.00;99.90;;;;;;5053776;28;20520;-76
2022/07/05 06:53:32;;;;;;;4.18;1.40;;;19.00;99.90;;;;;;5053521;28;20082;-75
2022/07/05 06:55:58;;;;;;;4.70;1.40;;;19.10;99.90;;;;;;5053388;28;20083;-76
2022/07/05 06:58:24;;;;;;;4.55;1.45;;;19.20;99.90;;;;;;5055244;28;20059;-80
2022/07/05 07:00:50;;;;;;;3.00;1.15;;;19.30;99.90;;;;;;5056473;28;20017;-80
2022/07/05 07:03:16;;;;;;;3.47;1.00;;;19.30;99.90;;;;;;5056550;28;20377;-80
2022/07/05 07:05:41;;;;;;;4.28;1.10;;;19.30;99.90;;;;;;5041454;28;20047;-81
2022/07/05 07:10:52;;;;;;;7.23;1.00;;;19.40;99.90;;;;;;5056731;28;20032;-80
2022/07/05 07:13:19;;;;;;;2.20;1.15;;;19.40;99.90;;;;;;5039424;28;20025;-80
2022/07/05 07:15:46;;;;;;;4.50;1.00;;;19.50;99.90;;;;;;5034719;28;20144;-80
2022/07/05 07:18:12;;;;;;;5.18;1.02;;;19.50;99.90;;;;;;5038630;28;20359;-80
2022/07/05 07:20:37;;;;;;;3.75;1.00;;;19.50;99.90;;;;;;5051807;28;20039;-82
2022/07/05 07:23:03;;;;;;;5.47;1.05;;;19.60;99.90;;;;;;5047081;28;20044;-82
2022/07/05 07:25:28;;;;;;;3.72;1.00;;;19.60;99.90;;;;;;5035570;28;20030;-82
2022/07/05 07:27:55;;;;;;;4.80;1.10;;;19.60;99.90;;;;;;5042244;28;20035;-82
2022/07/05 07:30:23;;;;;;;4.97;0.98;;;19.70;99.90;;;;;;5034840;28;20473;-80
2022/07/05 07:32:49;;;;;;;6.55;1.20;;;19.80;99.90;;;;;;5033906;28;20524;-78
2022/07/05 07:35:15;;;;;;;5.68;1.00;;;19.80;99.90;;;;;;5032552;28;20029;-79
2022/07/05 07:37:41;;;;;;;4.22;0.73;;;20.00;99.90;;;;;;5032058;28;20049;-79
2022/07/05 07:40:08;;;;;;;1.23;0.70;;;20.00;99.90;;;;;;5036000;28;20505;-79
2022/07/05 07:42:34;;;;;;;5.93;1.10;;;20.20;99.90;;;;;;5042576;28;20045;-79
2022/07/05 07:45:03;;;;;;;4.13;1.20;;;20.20;99.90;;;;;;5039998;28;20030;-79
2022/07/05 07:47:32;;;;;;;5.28;1.02;;;20.30;99.90;;;;;;5033441;28;20072;-79
2022/07/05 07:49:58;;;;;;;4.15;0.95;;;20.40;99.90;;;;;;5033483;28;20689;-77
2022/07/05 07:52:24;;;;;;;5.15;1.00;;;20.50;99.10;;;;;;5031361;28;20112;-77
2022/07/05 07:54:49;;;;;;;5.57;1.10;;;20.60;98.60;;;;;;5032275;28;20018;-77
2022/07/05 07:57:15;;;;;;;2.58;0.93;;;20.60;98.20;;;;;;5031287;28;20400;-76
2022/07/05 07:59:41;;;;;;;3.33;0.80;;;20.70;98.50;;;;;;5031232;28;20577;-76
2022/07/05 08:02:06;;;;;;;3.75;0.88;;;20.90;98.70;;;;;;5031958;28;20382;-76
2022/07/05 08:04:32;;;;;;;3.20;1.00;;;21.00;98.30;;;;;;5035468;28;20045;-77
2022/07/05 08:06:58;;;;;;;4.15;0.98;;;21.00;98.00;;;;;;5041702;28;20347;-76
2022/07/05 08:09:24;;;;;;;3.03;0.98;;;21.20;97.90;;;;;;5032003;28;20466;-77
2022/07/05 08:11:49;;;;;;;3.72;0.98;;;21.20;97.30;;;;;;5032049;28;20062;-77
2022/07/05 08:14:17;;;;;;;6.05;1.00;;;21.30;96.40;;;;;;5032109;28;20044;-76
2022/07/05 08:16:43;;;;;;;3.65;1.00;;;21.40;96.00;;;;;;5031822;28;20033;-77
2022/07/05 08:21:53;;;;;;;2.33;0.90;;;21.60;95.00;;;;;;5033764;28;20136;-77
2022/07/05 08:24:18;;;;;;;5.93;1.20;;;21.70;94.30;;;;;;5038593;28;20029;-77
2022/07/05 08:26:44;;;;;;;5.22;1.10;;;21.80;94.80;;;;;;5031847;28;20076;-77
2022/07/05 08:29:11;;;;;;;3.42;0.95;;;22.00;94.30;;;;;;5041652;28;20056;-77
2022/07/05 08:31:42;;;;;;;4.68;0.90;;;22.20;92.90;;;;;;5051810;28;20056;-77
2022/07/05 08:34:08;;;;;;;2.78;0.98;;;22.20;92.10;;;;;;5051892;28;20032;-76
2022/07/05 08:36:35;;;;;;;5.65;1.10;;;22.20;91.70;;;;;;5039316;28;20026;-77
2022/07/05 08:39:00;;;;;;;4.68;0.93;;;22.20;91.30;;;;;;5048728;28;20027;-76
2022/07/05 08:41:26;;;;;;;4.45;1.10;;;22.30;91.40;;;;;;5052162;28;20104;-76
2022/07/05 08:43:52;;;;;;;3.80;1.15;;;22.20;91.80;;;;;;5051195;28;20036;-77
2022/07/05 08:46:18;;;;;;;2.33;0.88;;;22.00;92.20;;;;;;5047184;28;20035;-77
2022/07/05 08:48:48;;;;;;;1.92;0.75;;;22.00;92.20;;;;;;5031189;28;20034;-83
2022/07/05 08:51:23;;;;;;;4.60;1.08;;;22.00;92.30;;;;;;5032460;28;20041;-80
2022/07/05 08:53:50;;;;;;;3.72;1.30;;;22.00;92.00;;;;;;5034658;28;20013;-79
2022/07/05 08:56:16;;;;;;;4.72;1.00;;;21.70;91.80;;;;;;5034629;28;20028;-80
2022/07/05 08:58:42;;;;;;;4.88;1.30;;;21.70;92.50;;;;;;5036512;28;20029;-79
2022/07/05 09:01:09;;;;;;;4.65;1.17;;;21.80;92.80;;;;;;5032342;28;20021;-82
2022/07/05 09:03:42;;;;;;;4.55;1.20;;;21.90;92.80;;;;;;5033685;28;20025;-80
2022/07/05 09:06:11;;;;;;;7.32;1.27;;;22.00;92.50;;;;;;5031135;28;20030;-79
2022/07/05 09:08:41;;;;;;;6.10;1.20;;;22.00;92.60;;;;;;5031026;28;20425;-76
2022/07/05 09:11:13;;;;;;;3.88;1.05;;;22.00;92.90;;;;;;5032725;28;20544;-80
2022/07/05 09:13:40;;;;;;;3.47;1.10;;;22.00;92.30;;;;;;5030955;28;20090;-79
2022/07/05 09:16:06;;;;;;;4.10;1.00;;;22.10;92.90;;;;;;5029850;28;20101;-78
2022/07/05 09:18:46;;;;;;;6.47;1.08;;;22.10;92.30;;;;;;5031218;28;20306;-80
2022/07/05 09:21:12;;;;;;;3.63;1.10;;;22.10;92.00;;;;;;5029434;28;20021;-80
2022/07/05 09:23:38;;;;;;;5.78;1.30;;;22.20;91.80;;;;;;5030463;28;20051;-80
2022/07/05 09:26:03;;;;;;;4.95;1.10;;;22.30;91.90;;;;;;5031209;28;20084;-83
2022/07/05 09:28:29;;;;;;;5.28;1.20;;;22.40;91.90;;;;;;5031024;28;20044;-81
2022/07/05 09:30:54;;;;;;;5.88;1.10;;;22.40;91.50;;;;;;5032314;28;20021;-80
2022/07/05 09:33:20;;;;;;;2.55;1.25;;;22.30;91.30;;;;;;5031249;28;20382;-80
2022/07/05 09:35:54;;;;;;;4.40;1.17;;;22.40;91.00;;;;;;5031705;28;20040;-79
2022/07/05 09:38:22;;;;;;;5.95;1.17;;;22.40;90.00;;;;;;5048695;28;20124;-76
2022/07/05 09:40:53;;;;;;;3.88;1.00;;;22.50;90.20;;;;;;5036420;28;20079;-77
2022/07/05 09:43:26;;;;;;;3.50;1.25;;;22.60;90.40;;;;;;5036372;28;20024;-76
2022/07/05 09:45:55;;;;;;;4.88;1.05;;;22.70;90.20;;;;;;5040525;28;20024;-76
2022/07/05 09:48:21;;;;;;;5.15;1.05;;;22.80;90.10;;;;;;5035611;28;20033;-76
2022/07/05 09:50:49;;;;;;;3.90;1.20;;;22.80;87.90;;;;;;5045540;28;20028;-76
2022/07/05 09:53:14;;;;;;;3.97;1.08;;;22.90;87.40;;;;;;5030683;28;20049;-76
2022/07/05 09:55:43;;;;;;;6.90;1.10;;;22.90;86.90;;;;;;5039958;28;20528;-76
2022/07/05 09:58:12;;;;;;;3.80;1.10;;;23.00;87.10;;;;;;5030246;28;20030;-76
2022/07/05 10:00:38;;;;;;;4.35;0.88;;;23.20;86.50;;;;;;5030601;28;20018;-76
2022/07/05 10:03:03;;;;;;;6.85;1.52;;;23.30;84.70;;;;;;5030761;28;20014;-76
2022/07/05 10:05:33;;;;;;;2.95;1.17;;;23.20;82.80;;;;;;5030616;28;20029;-76
2022/07/05 10:08:01;;;;;;;3.05;1.00;;;23.00;83.40;;;;;;5030499;28;20029;-75
2022/07/05 10:10:31;;;;;;;5.07;1.30;;;22.80;84.40;;;;;;5033400;28;20021;-76
2022/07/05 10:13:02;;;;;;;4.63;0.95;;;22.70;83.60;;;;;;5044154;28;20375;-76
2022/07/05 10:15:31;;;;;;;5.70;1.17;;;22.70;84.30;;;;;;5045769;28;20365;-75
2022/07/05 10:18:10;;;;;;;3.35;0.98;;;22.70;83.80;;;;;;5036362;28;20017;-76
2022/07/05 10:20:40;;;;;;;6.30;1.10;;;22.80;83.40;;;;;;5034991;28;20063;-76
2022/07/05 10:23:12;;;;;;;7.20;0.90;;;23.00;81.80;;;;;;5042899;28;20390;-76
2022/07/05 10:25:43;;;;;;;2.72;1.00;;;23.20;78.60;;;;;;5039976;28;20028;-75
2022/07/05 10:28:10;;;;;;;2.60;0.85;;;23.20;78.50;;;;;;5037204;28;20026;-76
2022/07/05 10:30:36;;;;;;;5.65;1.08;;;23.20;78.20;;;;;;5038751;28;20108;-76
2022/07/05 10:33:03;;;;;;;3.20;0.88;;;23.40;78.30;;;;;;5048611;28;20056;-75
2022/07/05 10:35:29;;;;;;;3.35;0.90;;;23.50;77.20;;;;;;5034359;28;20021;-76
2022/07/05 10:37:56;;;;;;;3.90;0.90;;;23.50;75.90;;;;;;5044270;28;20392;-76
2022/07/05 10:40:22;;;;;;;6.18;1.10;;;23.60;74.70;;;;;;5054139;28;20374;-76
2022/07/05 10:42:55;;;;;;;3.10;0.98;;;23.60;73.50;;;;;;5054760;28;20043;-76
2022/07/05 10:45:25;;;;;;;1.83;0.98;;;23.60;72.70;;;;;;5055578;28;20032;-76
2022/07/05 10:48:09;;;;;;;5.15;0.70;;;23.60;71.90;;;;;;5054349;28;20029;-76
2022/07/05 10:50:49;;;;;;;4.57;0.98;;;23.70;72.70;;;;;;5054411;28;20025;-75
2022/07/05 10:53:16;;;;;;;3.50;1.00;;;23.80;72.60;;;;;;5054304;28;20025;-76
2022/07/05 10:55:48;;;;;;;5.05;1.10;;;23.90;72.20;;;;;;5054063;28;20424;-76
2022/07/05 10:58:18;;;;;;;6.13;1.00;;;23.80;69.20;;;;;;5054919;28;20025;-75
2022/07/05 11:00:44;;;;;;;2.78;0.80;;;23.80;68.30;;;;;;5054227;28;20029;-75
2022/07/05 11:03:36;;;;;;;2.22;0.73;;;23.70;66.20;;;;;;5054352;28;20036;-75
2022/07/05 11:06:02;;;;;;;3.70;0.90;;;23.50;65.30;;;;;;5052541;28;20036;-76
2022/07/05 11:08:30;;;;;;;3.03;0.90;;;23.40;66.50;;;;;;5054005;28;20055;-76
2022/07/05 11:11:13;;;;;;;2.90;0.65;;;23.40;65.90;;;;;;5052195;28;20109;-75
2022/07/05 11:13:43;;;;;;;2.35;0.77;;;23.40;66.00;;;;;;5054375;28;20067;-76
2022/07/05 11:16:33;;;;;;;2.65;0.73;;;23.40;65.90;;;;;;5053944;28;20029;-76
2022/07/05 11:19:09;;;;;;;3.58;0.70;;;23.50;64.70;;;;;;5053657;28;20037;-76
2022/07/05 11:21:36;;;;;;;2.53;0.60;;;23.30;63.60;;;;;;5052867;28;20045;-77
2022/07/05 11:24:29;;;;;;;0.98;0.60;;;23.20;63.70;;;;;;5053535;28;20043;-75
2022/07/05 11:26:59;;;;;;;1.90;0.70;;;23.30;63.40;;;;;;5052219;28;20029;-76
2022/07/05 11:29:41;;;;;;;2.22;0.50;;;23.40;63.60;;;;;;5053145;28;20477;-75
2022/07/05 11:32:09;;;;;;;1.92;0.55;;;23.50;63.00;;;;;;5053570;28;20032;-76
2022/07/05 11:34:36;;;;;;;2.60;0.60;;;23.60;61.50;;;;;;5053287;28;20036;-76
2022/07/05 11:37:13;;;;;;;1.92;0.70;;;23.60;61.30;;;;;;5037702;28;20033;-76
2022/07/05 11:39:43;;;;;;;1.00;0.50;;;23.70;61.50;;;;;;5053019;28;20043;-75
2022/07/05 11:42:09;;;;;;;1.38;0.70;;;23.70;60.70;;;;;;5052804;28;20032;-76
2022/07/05 11:44:40;;;;;;;2.60;0.60;;;23.80;59.80;;;;;;5053479;28;20029;-75
2022/07/05 11:47:06;;;;;;;2.92;0.60;;;23.80;60.40;;;;;;5052822;28;20063;-75
2022/07/05 11:49:32;;;;;;;3.53;0.63;;;23.90;60.50;;;;;;5053350;28;20425;-75
2022/07/05 11:52:02;;;;;;;3.15;0.60;;;24.00;60.10;;;;;;5052909;28;20496;-76
2022/07/05 11:54:30;;;;;;;2.83;0.80;;;24.00;61.10;;;;;;5052671;28;20029;-76
2022/07/05 11:56:56;;;;;;;3.05;0.80;;;24.00;59.20;;;;;;5052836;28;20099;-76
2022/07/05 11:59:24;;;;;;;2.28;0.70;;;23.90;59.20;;;;;;5052756;28;20025;-77
2022/07/05 12:01:50;;;;;;;2.25;0.70;;;24.00;58.60;;;;;;5052623;28;20035;-75
2022/07/05 12:04:30;;;;;;;4.25;0.60;;;23.80;58.40;;;;;;5037324;28;20030;-76
2022/07/05 12:06:56;;;;;;;1.95;0.77;;;23.70;58.50;;;;;;5052613;28;20036;-76
2022/07/05 12:15:09;;;;;;;2.83;0.70;;;23.70;60.40;;;;;;5040883;28;20393;-77
2022/07/05 12:17:36;;;;;;;3.20;0.85;;;23.70;60.90;;;;;;5051072;28;20060;-78
2022/07/05 12:20:07;;;;;;;3.15;0.60;;;23.60;61.10;;;;;;5052579;28;20450;-76
2022/07/05 12:22:38;;;;;;;4.60;0.80;;;23.70;60.70;;;;;;5052464;28;20048;-76
2022/07/05 12:25:05;;;;;;;1.73;0.68;;;23.60;60.80;;;;;;5052423;28;20021;-76
2022/07/05 12:27:36;;;;;;;1.80;0.70;;;23.50;60.40;;;;;;5052170;28;20017;-77
2022/07/05 12:30:03;;;;;;;1.60;0.80;;;23.40;59.80;;;;;;5052036;28;20040;-76
2022/07/05 12:32:30;;;;;;;1.25;0.63;;;23.20;60.40;;;;;;5051322;28;20016;-77
2022/07/05 12:34:56;;;;;;;3.45;0.80;;;23.10;59.00;;;;;;5035543;28;20083;-77
2022/07/05 12:37:23;;;;;;;2.33;0.65;;;23.10;59.60;;;;;;5051505;28;20021;-76
2022/07/05 12:40:01;;;;;;;3.30;0.73;;;23.00;60.20;;;;;;5051790;28;20025;-76
2022/07/05 12:42:39;;;;;;;2.83;0.68;;;22.80;60.20;;;;;;5051583;28;20054;-76
2022/07/05 12:45:15;;;;;;;2.85;0.70;;;22.70;60.90;;;;;;5052007;28;20040;-76
2022/07/05 12:48:08;;;;;;;2.42;0.75;;;22.70;60.60;;;;;;5051550;28;20025;-76
2022/07/05 12:50:51;;;;;;;2.97;0.85;;;22.70;60.00;;;;;;5050658;28;20048;-76
2022/07/05 12:58:56;;;;;;;4.30;0.82;;;22.60;62.20;;;;;;5051807;28;20044;-76